sensor_id;sensor_type;location;lat;lon;timestamp;temperature;humidity
22787;DHT22;63134;52.020;4.714;2023-02-28T00:02:10;3.60;89.00
22787;DHT22;63134;52.020;4.714;2023-02-28T00:04:55;3.70;89.10
22787;DHT22;63134;52.020;4.714;2023-02-28T00:07:46;3.70;89.30
22787;DHT22;63134;52.020;4.714;2023-02-28T00:10:32;3.70;89.50
22787;DHT22;63134;52.020;4.714;2023-02-28T00:13:17;3.80;89.60
22787;DHT22;63134;52.020;4.714;2023-02-28T00:16:05;3.90;89.80
22787;DHT22;63134;52.020;4.714;2023-02-28T00:18:51;4.00;90.00
22787;DHT22;63134;52.020;4.714;2023-02-28T00:21:48;4.10;90.00
22787;DHT22;63134;52.020;4.714;2023-02-28T00:24:36;4.20;90.00
22787;DHT22;63134;52.020;4.714;2023-02-28T00:27:24;4.30;90.00
22787;DHT22;63134;52.020;4.714;2023-02-28T00:30:12;4.40;90.00
22787;DHT22;63134;52.020;4.714;2023-02-28T00:33:01;4.40;90.00
22787;DHT22;63134;52.020;4.714;2023-02-28T00:35:46;4.50;89.80
22787;DHT22;63134;52.020;4.714;2023-02-28T00:38:33;4.60;89.70
22787;DHT22;63134;52.020;4.714;2023-02-28T00:41:21;4.70;89.50
22787;DHT22;63134;52.020;4.714;2023-02-28T00:44:06;4.70;89.40
22787;DHT22;63134;52.020;4.714;2023-02-28T00:46:52;4.80;89.40
22787;DHT22;63134;52.020;4.714;2023-02-28T00:49:42;4.90;89.20
22787;DHT22;63134;52.020;4.714;2023-02-28T00:52:29;4.90;89.00
22787;DHT22;63134;52.020;4.714;2023-02-28T00:55:15;4.90;88.80
22787;DHT22;63134;52.020;4.714;2023-02-28T00:58:01;5.00;88.60
22787;DHT22;63134;52.020;4.714;2023-02-28T01:00:47;5.00;88.30
22787;DHT22;63134;52.020;4.714;2023-02-28T01:03:35;5.00;88.20
22787;DHT22;63134;52.020;4.714;2023-02-28T01:06:21;5.00;87.90
22787;DHT22;63134;52.020;4.714;2023-02-28T01:09:07;5.10;87.80
22787;DHT22;63134;52.020;4.714;2023-02-28T01:11:52;5.10;87.50
22787;DHT22;63134;52.020;4.714;2023-02-28T01:14:38;5.10;87.40
22787;DHT22;63134;52.020;4.714;2023-02-28T01:17:26;5.10;87.20
22787;DHT22;63134;52.020;4.714;2023-02-28T01:20:18;5.10;87.10
22787;DHT22;63134;52.020;4.714;2023-02-28T01:23:04;5.10;87.10
22787;DHT22;63134;52.020;4.714;2023-02-28T01:25:52;5.10;87.10
22787;DHT22;63134;52.020;4.714;2023-02-28T01:28:38;5.20;87.10
22787;DHT22;63134;52.020;4.714;2023-02-28T01:31:23;5.20;86.80
22787;DHT22;63134;52.020;4.714;2023-02-28T01:34:09;5.20;86.70
22787;DHT22;63134;52.020;4.714;2023-02-28T01:36:54;5.20;86.50
22787;DHT22;63134;52.020;4.714;2023-02-28T01:39:40;5.20;86.70
22787;DHT22;63134;52.020;4.714;2023-02-28T01:42:26;5.20;86.50
22787;DHT22;63134;52.020;4.714;2023-02-28T01:48:08;5.20;86.30
22787;DHT22;63134;52.020;4.714;2023-02-28T01:50:55;5.30;86.40
22787;DHT22;63134;52.020;4.714;2023-02-28T01:53:48;5.20;86.30
22787;DHT22;63134;52.020;4.714;2023-02-28T01:56:36;5.30;86.40
22787;DHT22;63134;52.020;4.714;2023-02-28T01:59:37;5.30;86.40
22787;DHT22;63134;52.020;4.714;2023-02-28T02:02:26;5.30;86.30
22787;DHT22;63134;52.020;4.714;2023-02-28T02:05:15;5.30;86.30
22787;DHT22;63134;52.020;4.714;2023-02-28T02:08:10;5.30;86.20
22787;DHT22;63134;52.020;4.714;2023-02-28T02:11:03;5.30;86.20
22787;DHT22;63134;52.020;4.714;2023-02-28T02:14:20;5.30;86.10
22787;DHT22;63134;52.020;4.714;2023-02-28T02:17:20;5.30;86.10
22787;DHT22;63134;52.020;4.714;2023-02-28T02:20:15;5.30;86.10
22787;DHT22;63134;52.020;4.714;2023-02-28T02:23:28;5.40;86.20
22787;DHT22;63134;52.020;4.714;2023-02-28T02:26:58;5.40;86.30
22787;DHT22;63134;52.020;4.714;2023-02-28T02:33:10;5.40;86.00
22787;DHT22;63134;52.020;4.714;2023-02-28T02:36:23;5.40;86.10
22787;DHT22;63134;52.020;4.714;2023-02-28T02:39:36;5.40;86.10
22787;DHT22;63134;52.020;4.714;2023-02-28T02:42:30;5.40;86.10
22787;DHT22;63134;52.020;4.714;2023-02-28T02:45:18;5.50;86.10
22787;DHT22;63134;52.020;4.714;2023-02-28T02:48:06;5.50;86.00
22787;DHT22;63134;52.020;4.714;2023-02-28T02:51:03;5.50;85.80
22787;DHT22;63134;52.020;4.714;2023-02-28T02:54:05;5.50;86.00
22787;DHT22;63134;52.020;4.714;2023-02-28T02:56:57;5.60;86.10
22787;DHT22;63134;52.020;4.714;2023-02-28T02:59:43;5.60;86.00
22787;DHT22;63134;52.020;4.714;2023-02-28T03:02:30;5.60;85.90
22787;DHT22;63134;52.020;4.714;2023-02-28T03:05:25;5.60;85.80
22787;DHT22;63134;52.020;4.714;2023-02-28T03:08:14;5.60;85.80
22787;DHT22;63134;52.020;4.714;2023-02-28T03:11:02;5.60;85.60
22787;DHT22;63134;52.020;4.714;2023-02-28T03:13:58;5.70;85.70
22787;DHT22;63134;52.020;4.714;2023-02-28T03:23:35;5.70;85.40
22787;DHT22;63134;52.020;4.714;2023-02-28T03:26:26;5.70;85.40
22787;DHT22;63134;52.020;4.714;2023-02-28T03:29:21;5.70;85.40
22787;DHT22;63134;52.020;4.714;2023-02-28T03:32:44;5.70;85.20
22787;DHT22;63134;52.020;4.714;2023-02-28T03:35:36;5.70;85.30
22787;DHT22;63134;52.020;4.714;2023-02-28T03:41:32;5.80;85.30
22787;DHT22;63134;52.020;4.714;2023-02-28T03:44:25;5.70;85.10
22787;DHT22;63134;52.020;4.714;2023-02-28T03:47:22;5.70;85.20
22787;DHT22;63134;52.020;4.714;2023-02-28T03:50:27;5.70;85.40
22787;DHT22;63134;52.020;4.714;2023-02-28T03:53:31;5.70;85.20
22787;DHT22;63134;52.020;4.714;2023-02-28T03:56:27;5.70;85.30
22787;DHT22;63134;52.020;4.714;2023-02-28T03:59:26;5.70;85.20
22787;DHT22;63134;52.020;4.714;2023-02-28T04:02:14;5.70;85.00
22787;DHT22;63134;52.020;4.714;2023-02-28T04:05:00;5.70;85.20
22787;DHT22;63134;52.020;4.714;2023-02-28T04:07:47;5.70;85.00
22787;DHT22;63134;52.020;4.714;2023-02-28T04:10:36;5.70;85.30
22787;DHT22;63134;52.020;4.714;2023-02-28T04:13:26;5.70;85.40
22787;DHT22;63134;52.020;4.714;2023-02-28T04:16:14;5.80;85.30
22787;DHT22;63134;52.020;4.714;2023-02-28T04:19:18;5.80;85.10
22787;DHT22;63134;52.020;4.714;2023-02-28T04:22:03;5.80;85.10
22787;DHT22;63134;52.020;4.714;2023-02-28T04:24:49;5.80;85.00
22787;DHT22;63134;52.020;4.714;2023-02-28T04:27:43;5.80;84.80
22787;DHT22;63134;52.020;4.714;2023-02-28T04:30:32;5.80;85.00
22787;DHT22;63134;52.020;4.714;2023-02-28T04:33:19;5.80;84.80
22787;DHT22;63134;52.020;4.714;2023-02-28T04:36:08;5.80;84.70
22787;DHT22;63134;52.020;4.714;2023-02-28T04:38:54;5.80;85.60
22787;DHT22;63134;52.020;4.714;2023-02-28T04:41:39;5.80;84.60
22787;DHT22;63134;52.020;4.714;2023-02-28T04:44:28;5.80;84.50
22787;DHT22;63134;52.020;4.714;2023-02-28T04:47:13;5.70;84.70
22787;DHT22;63134;52.020;4.714;2023-02-28T04:49:59;5.70;84.70
22787;DHT22;63134;52.020;4.714;2023-02-28T04:52:44;5.70;84.80
22787;DHT22;63134;52.020;4.714;2023-02-28T04:55:30;5.70;85.00
22787;DHT22;63134;52.020;4.714;2023-02-28T04:58:15;5.70;85.30
22787;DHT22;63134;52.020;4.714;2023-02-28T05:01:04;5.70;85.20
22787;DHT22;63134;52.020;4.714;2023-02-28T05:03:51;5.70;85.30
22787;DHT22;63134;52.020;4.714;2023-02-28T05:06:37;5.70;85.40
22787;DHT22;63134;52.020;4.714;2023-02-28T05:09:22;5.70;85.40
22787;DHT22;63134;52.020;4.714;2023-02-28T05:12:09;5.70;85.30
22787;DHT22;63134;52.020;4.714;2023-02-28T05:14:54;5.70;85.00
22787;DHT22;63134;52.020;4.714;2023-02-28T05:17:40;5.70;85.20
22787;DHT22;63134;52.020;4.714;2023-02-28T05:20:25;5.70;85.50
22787;DHT22;63134;52.020;4.714;2023-02-28T05:23:13;5.70;85.40
22787;DHT22;63134;52.020;4.714;2023-02-28T05:25:59;5.70;85.20
22787;DHT22;63134;52.020;4.714;2023-02-28T05:28:44;5.70;85.40
22787;DHT22;63134;52.020;4.714;2023-02-28T05:31:29;5.70;85.20
22787;DHT22;63134;52.020;4.714;2023-02-28T05:34:16;5.70;85.10
22787;DHT22;63134;52.020;4.714;2023-02-28T05:37:01;5.70;85.10
22787;DHT22;63134;52.020;4.714;2023-02-28T05:39:46;5.70;85.10
22787;DHT22;63134;52.020;4.714;2023-02-28T05:42:32;5.70;85.20
22787;DHT22;63134;52.020;4.714;2023-02-28T05:45:18;5.70;85.00
22787;DHT22;63134;52.020;4.714;2023-02-28T05:48:04;5.70;85.00
22787;DHT22;63134;52.020;4.714;2023-02-28T05:50:49;5.70;85.00
22787;DHT22;63134;52.020;4.714;2023-02-28T05:53:37;5.70;84.70
22787;DHT22;63134;52.020;4.714;2023-02-28T05:56:23;5.60;84.50
22787;DHT22;63134;52.020;4.714;2023-02-28T05:59:09;5.50;84.10
22787;DHT22;63134;52.020;4.714;2023-02-28T06:01:55;5.50;84.20
22787;DHT22;63134;52.020;4.714;2023-02-28T06:04:41;5.40;84.10
22787;DHT22;63134;52.020;4.714;2023-02-28T06:07:27;5.30;83.80
22787;DHT22;63134;52.020;4.714;2023-02-28T06:10:13;5.30;83.60
22787;DHT22;63134;52.020;4.714;2023-02-28T06:13:03;5.20;83.40
22787;DHT22;63134;52.020;4.714;2023-02-28T06:15:49;5.20;83.20
22787;DHT22;63134;52.020;4.714;2023-02-28T06:18:34;5.20;83.00
22787;DHT22;63134;52.020;4.714;2023-02-28T06:21:19;5.10;82.70
22787;DHT22;63134;52.020;4.714;2023-02-28T06:24:08;5.10;82.60
22787;DHT22;63134;52.020;4.714;2023-02-28T06:26:56;5.10;82.30
22787;DHT22;63134;52.020;4.714;2023-02-28T06:29:43;5.00;81.90
22787;DHT22;63134;52.020;4.714;2023-02-28T06:32:29;5.00;82.00
22787;DHT22;63134;52.020;4.714;2023-02-28T06:35:17;5.00;82.70
22787;DHT22;63134;52.020;4.714;2023-02-28T06:38:03;4.90;81.70
22787;DHT22;63134;52.020;4.714;2023-02-28T06:40:54;4.80;81.90
22787;DHT22;63134;52.020;4.714;2023-02-28T06:43:41;4.70;82.10
22787;DHT22;63134;52.020;4.714;2023-02-28T06:46:27;4.70;82.40
22787;DHT22;63134;52.020;4.714;2023-02-28T06:49:12;4.60;82.50
22787;DHT22;63134;52.020;4.714;2023-02-28T06:51:58;4.60;82.90
22787;DHT22;63134;52.020;4.714;2023-02-28T06:54:43;4.60;83.00
22787;DHT22;63134;52.020;4.714;2023-02-28T06:57:30;4.50;83.20
22787;DHT22;63134;52.020;4.714;2023-02-28T07:00:16;4.50;83.60
22787;DHT22;63134;52.020;4.714;2023-02-28T07:03:01;4.50;83.70
22787;DHT22;63134;52.020;4.714;2023-02-28T07:05:56;4.50;84.00
22787;DHT22;63134;52.020;4.714;2023-02-28T07:08:42;4.40;84.80
22787;DHT22;63134;52.020;4.714;2023-02-28T07:11:28;4.40;84.10
22787;DHT22;63134;52.020;4.714;2023-02-28T07:14:14;4.30;84.20
22787;DHT22;63134;52.020;4.714;2023-02-28T07:16:59;4.30;84.60
22787;DHT22;63134;52.020;4.714;2023-02-28T07:19:48;4.30;85.00
22787;DHT22;63134;52.020;4.714;2023-02-28T07:22:35;4.20;85.00
22787;DHT22;63134;52.020;4.714;2023-02-28T07:25:22;4.20;85.10
22787;DHT22;63134;52.020;4.714;2023-02-28T07:28:12;4.20;85.40
22787;DHT22;63134;52.020;4.714;2023-02-28T07:31:03;4.20;85.90
22787;DHT22;63134;52.020;4.714;2023-02-28T07:33:52;4.20;85.90
22787;DHT22;63134;52.020;4.714;2023-02-28T07:36:38;4.20;86.20
22787;DHT22;63134;52.020;4.714;2023-02-28T07:39:24;4.30;86.30
22787;DHT22;63134;52.020;4.714;2023-02-28T07:42:11;4.30;86.30
22787;DHT22;63134;52.020;4.714;2023-02-28T07:44:58;4.20;86.30
22787;DHT22;63134;52.020;4.714;2023-02-28T07:47:44;4.30;86.70
22787;DHT22;63134;52.020;4.714;2023-02-28T07:50:30;4.40;86.70
22787;DHT22;63134;52.020;4.714;2023-02-28T07:53:16;4.30;86.70
22787;DHT22;63134;52.020;4.714;2023-02-28T07:56:03;4.40;87.20
22787;DHT22;63134;52.020;4.714;2023-02-28T07:58:49;4.40;86.80
22787;DHT22;63134;52.020;4.714;2023-02-28T08:01:37;4.40;86.70
22787;DHT22;63134;52.020;4.714;2023-02-28T08:04:23;4.40;86.70
22787;DHT22;63134;52.020;4.714;2023-02-28T08:07:09;4.30;87.00
22787;DHT22;63134;52.020;4.714;2023-02-28T08:09:57;4.30;87.00
22787;DHT22;63134;52.020;4.714;2023-02-28T08:12:43;4.30;87.30
22787;DHT22;63134;52.020;4.714;2023-02-28T08:15:29;4.30;87.50
22787;DHT22;63134;52.020;4.714;2023-02-28T08:18:15;4.30;87.50
22787;DHT22;63134;52.020;4.714;2023-02-28T08:21:09;4.40;87.50
22787;DHT22;63134;52.020;4.714;2023-02-28T08:23:54;4.40;87.80
22787;DHT22;63134;52.020;4.714;2023-02-28T08:26:41;4.50;88.20
22787;DHT22;63134;52.020;4.714;2023-02-28T08:29:29;4.50;88.40
22787;DHT22;63134;52.020;4.714;2023-02-28T08:32:15;4.50;88.20
22787;DHT22;63134;52.020;4.714;2023-02-28T08:35:13;4.50;89.00
22787;DHT22;63134;52.020;4.714;2023-02-28T08:37:59;4.60;88.20
22787;DHT22;63134;52.020;4.714;2023-02-28T08:40:45;4.60;88.50
22787;DHT22;63134;52.020;4.714;2023-02-28T08:43:34;4.70;88.90
22787;DHT22;63134;52.020;4.714;2023-02-28T08:46:23;4.70;88.90
22787;DHT22;63134;52.020;4.714;2023-02-28T08:49:10;4.80;89.00
22787;DHT22;63134;52.020;4.714;2023-02-28T08:51:56;4.80;88.70
22787;DHT22;63134;52.020;4.714;2023-02-28T08:54:42;4.80;89.40
22787;DHT22;63134;52.020;4.714;2023-02-28T08:57:27;4.80;88.80
22787;DHT22;63134;52.020;4.714;2023-02-28T09:00:15;4.90;89.10
22787;DHT22;63134;52.020;4.714;2023-02-28T09:03:00;5.00;89.20
22787;DHT22;63134;52.020;4.714;2023-02-28T09:05:57;5.10;89.40
22787;DHT22;63134;52.020;4.714;2023-02-28T09:08:43;5.20;89.80
22787;DHT22;63134;52.020;4.714;2023-02-28T09:11:28;5.30;89.70
22787;DHT22;63134;52.020;4.714;2023-02-28T09:14:13;5.40;89.50
22787;DHT22;63134;52.020;4.714;2023-02-28T09:17:03;5.50;89.40
22787;DHT22;63134;52.020;4.714;2023-02-28T09:19:48;5.60;89.50
22787;DHT22;63134;52.020;4.714;2023-02-28T09:22:34;5.60;89.20
22787;DHT22;63134;52.020;4.714;2023-02-28T09:25:23;5.70;89.30
22787;DHT22;63134;52.020;4.714;2023-02-28T09:28:09;5.80;89.70
22787;DHT22;63134;52.020;4.714;2023-02-28T09:30:54;5.90;88.80
22787;DHT22;63134;52.020;4.714;2023-02-28T09:33:40;5.90;88.70
22787;DHT22;63134;52.020;4.714;2023-02-28T09:36:26;6.00;88.90
22787;DHT22;63134;52.020;4.714;2023-02-28T09:39:29;6.00;88.30
22787;DHT22;63134;52.020;4.714;2023-02-28T09:42:29;6.00;88.30
22787;DHT22;63134;52.020;4.714;2023-02-28T09:45:36;6.10;88.20
22787;DHT22;63134;52.020;4.714;2023-02-28T09:48:28;6.10;88.10
22787;DHT22;63134;52.020;4.714;2023-02-28T09:51:40;6.20;88.30
22787;DHT22;63134;52.020;4.714;2023-02-28T09:54:32;6.30;88.30
22787;DHT22;63134;52.020;4.714;2023-02-28T09:57:32;6.30;88.10
22787;DHT22;63134;52.020;4.714;2023-02-28T10:03:30;6.50;87.80
22787;DHT22;63134;52.020;4.714;2023-02-28T10:06:20;6.50;87.80
22787;DHT22;63134;52.020;4.714;2023-02-28T10:09:11;6.60;87.80
22787;DHT22;63134;52.020;4.714;2023-02-28T10:12:05;6.70;87.70
22787;DHT22;63134;52.020;4.714;2023-02-28T10:14:52;6.80;87.50
22787;DHT22;63134;52.020;4.714;2023-02-28T10:17:43;6.90;87.50
22787;DHT22;63134;52.020;4.714;2023-02-28T10:20:45;7.00;86.60
22787;DHT22;63134;52.020;4.714;2023-02-28T10:23:34;7.00;85.50
22787;DHT22;63134;52.020;4.714;2023-02-28T10:26:21;7.10;85.10
22787;DHT22;63134;52.020;4.714;2023-02-28T10:29:09;7.20;86.20
22787;DHT22;63134;52.020;4.714;2023-02-28T10:32:01;7.40;85.70
22787;DHT22;63134;52.020;4.714;2023-02-28T10:35:17;7.70;86.10
22787;DHT22;63134;52.020;4.714;2023-02-28T10:38:16;8.00;85.20
22787;DHT22;63134;52.020;4.714;2023-02-28T10:41:13;8.30;84.80
22787;DHT22;63134;52.020;4.714;2023-02-28T10:44:22;8.70;83.30
22787;DHT22;63134;52.020;4.714;2023-02-28T10:47:14;8.90;81.60
22787;DHT22;63134;52.020;4.714;2023-02-28T10:50:02;9.20;81.10
22787;DHT22;63134;52.020;4.714;2023-02-28T10:52:51;9.50;80.00
22787;DHT22;63134;52.020;4.714;2023-02-28T10:55:40;9.60;77.90
22787;DHT22;63134;52.020;4.714;2023-02-28T10:58:29;9.50;75.40
22787;DHT22;63134;52.020;4.714;2023-02-28T11:01:18;9.50;74.10
22787;DHT22;63134;52.020;4.714;2023-02-28T11:07:26;9.20;71.10
22787;DHT22;63134;52.020;4.714;2023-02-28T11:10:29;9.20;71.00
22787;DHT22;63134;52.020;4.714;2023-02-28T11:13:21;9.30;68.00
22787;DHT22;63134;52.020;4.714;2023-02-28T11:16:12;9.20;66.60
22787;DHT22;63134;52.020;4.714;2023-02-28T11:18:58;9.10;63.90
22787;DHT22;63134;52.020;4.714;2023-02-28T11:21:53;9.30;63.40
22787;DHT22;63134;52.020;4.714;2023-02-28T11:24:45;9.50;62.90
22787;DHT22;63134;52.020;4.714;2023-02-28T11:30:28;10.20;61.20
22787;DHT22;63134;52.020;4.714;2023-02-28T11:33:27;10.70;59.90
22787;DHT22;63134;52.020;4.714;2023-02-28T11:36:30;11.10;58.90
22787;DHT22;63134;52.020;4.714;2023-02-28T11:39:17;11.30;56.80
22787;DHT22;63134;52.020;4.714;2023-02-28T11:42:55;11.50;55.60
22787;DHT22;63134;52.020;4.714;2023-02-28T11:46:00;11.80;54.40
22787;DHT22;63134;52.020;4.714;2023-02-28T11:48:58;12.30;53.60
22787;DHT22;63134;52.020;4.714;2023-02-28T11:55:16;14.10;52.50
22787;DHT22;63134;52.020;4.714;2023-02-28T11:58:14;15.60;50.60
22787;DHT22;63134;52.020;4.714;2023-02-28T12:01:38;16.80;48.00
22787;DHT22;63134;52.020;4.714;2023-02-28T12:10:51;20.00;37.90
22787;DHT22;63134;52.020;4.714;2023-02-28T12:28:38;23.70;26.10
22787;DHT22;63134;52.020;4.714;2023-02-28T12:31:27;24.50;25.60
22787;DHT22;63134;52.020;4.714;2023-02-28T12:34:19;25.00;24.60
22787;DHT22;63134;52.020;4.714;2023-02-28T12:37:22;25.80;23.90
22787;DHT22;63134;52.020;4.714;2023-02-28T12:40:22;26.20;22.70
22787;DHT22;63134;52.020;4.714;2023-02-28T12:43:09;26.90;22.80
22787;DHT22;63134;52.020;4.714;2023-02-28T12:46:23;27.60;21.80
22787;DHT22;63134;52.020;4.714;2023-02-28T12:49:15;27.90;19.40
22787;DHT22;63134;52.020;4.714;2023-02-28T12:52:03;27.20;19.80
22787;DHT22;63134;52.020;4.714;2023-02-28T12:54:53;27.70;20.40
22787;DHT22;63134;52.020;4.714;2023-02-28T12:57:50;28.40;19.80
22787;DHT22;63134;52.020;4.714;2023-02-28T13:00:51;29.00;19.60
22787;DHT22;63134;52.020;4.714;2023-02-28T13:07:32;29.90;18.80
22787;DHT22;63134;52.020;4.714;2023-02-28T13:10:22;30.40;18.10
22787;DHT22;63134;52.020;4.714;2023-02-28T13:13:17;30.70;17.90
22787;DHT22;63134;52.020;4.714;2023-02-28T13:16:10;31.00;17.00
22787;DHT22;63134;52.020;4.714;2023-02-28T13:19:09;31.30;17.10
22787;DHT22;63134;52.020;4.714;2023-02-28T13:21:56;32.00;16.70
22787;DHT22;63134;52.020;4.714;2023-02-28T13:24:51;32.30;16.20
22787;DHT22;63134;52.020;4.714;2023-02-28T13:27:42;32.20;16.00
22787;DHT22;63134;52.020;4.714;2023-02-28T13:36:37;32.00;15.80
22787;DHT22;63134;52.020;4.714;2023-02-28T13:42:23;32.20;15.80
22787;DHT22;63134;52.020;4.714;2023-02-28T13:48:01;33.20;15.50
22787;DHT22;63134;52.020;4.714;2023-02-28T13:50:47;33.60;15.20
22787;DHT22;63134;52.020;4.714;2023-02-28T13:53:59;33.80;14.80
22787;DHT22;63134;52.020;4.714;2023-02-28T13:57:09;33.10;14.30
22787;DHT22;63134;52.020;4.714;2023-02-28T14:00:21;32.80;14.80
22787;DHT22;63134;52.020;4.714;2023-02-28T14:06:28;33.30;15.00
22787;DHT22;63134;52.020;4.714;2023-02-28T14:09:21;33.90;14.60
22787;DHT22;63134;52.020;4.714;2023-02-28T14:15:46;34.40;14.20
22787;DHT22;63134;52.020;4.714;2023-02-28T14:18:36;34.30;14.10
22787;DHT22;63134;52.020;4.714;2023-02-28T14:21:26;34.40;13.70
22787;DHT22;63134;52.020;4.714;2023-02-28T14:25:17;33.80;13.50
22787;DHT22;63134;52.020;4.714;2023-02-28T14:27:43;33.30;13.80
22787;DHT22;63134;52.020;4.714;2023-02-28T14:31:09;32.90;13.80
22787;DHT22;63134;52.020;4.714;2023-02-28T14:34:51;32.60;14.20
22787;DHT22;63134;52.020;4.714;2023-02-28T14:37:28;32.60;13.90
22787;DHT22;63134;52.020;4.714;2023-02-28T14:40:32;32.40;13.60
22787;DHT22;63134;52.020;4.714;2023-02-28T14:43:24;31.70;14.00
22787;DHT22;63134;52.020;4.714;2023-02-28T14:46:12;31.80;14.00
22787;DHT22;63134;52.020;4.714;2023-02-28T14:48:59;32.10;14.50
22787;DHT22;63134;52.020;4.714;2023-02-28T14:51:44;31.80;13.80
22787;DHT22;63134;52.020;4.714;2023-02-28T14:54:30;31.70;14.00
22787;DHT22;63134;52.020;4.714;2023-02-28T14:57:27;32.00;14.40
22787;DHT22;63134;52.020;4.714;2023-02-28T15:00:25;32.20;13.90
22787;DHT22;63134;52.020;4.714;2023-02-28T15:03:35;31.90;13.70
22787;DHT22;63134;52.020;4.714;2023-02-28T15:06:21;32.00;14.20
22787;DHT22;63134;52.020;4.714;2023-02-28T15:09:16;32.60;14.40
22787;DHT22;63134;52.020;4.714;2023-02-28T15:12:02;32.60;13.80
22787;DHT22;63134;52.020;4.714;2023-02-28T15:14:48;32.70;13.90
22787;DHT22;63134;52.020;4.714;2023-02-28T15:17:36;33.40;13.90
22787;DHT22;63134;52.020;4.714;2023-02-28T15:20:23;34.00;13.30
22787;DHT22;63134;52.020;4.714;2023-02-28T15:23:15;33.90;13.10
22787;DHT22;63134;52.020;4.714;2023-02-28T15:26:02;33.90;13.20
22787;DHT22;63134;52.020;4.714;2023-02-28T15:28:52;34.20;13.20
22787;DHT22;63134;52.020;4.714;2023-02-28T15:31:45;34.20;13.10
22787;DHT22;63134;52.020;4.714;2023-02-28T15:34:43;34.20;13.10
22787;DHT22;63134;52.020;4.714;2023-02-28T15:37:40;34.60;12.80
22787;DHT22;63134;52.020;4.714;2023-02-28T15:40:38;34.20;13.20
22787;DHT22;63134;52.020;4.714;2023-02-28T15:43:29;33.30;14.30
22787;DHT22;63134;52.020;4.714;2023-02-28T15:46:15;32.20;15.80
22787;DHT22;63134;52.020;4.714;2023-02-28T15:49:02;31.60;16.80
22787;DHT22;63134;52.020;4.714;2023-02-28T15:51:52;31.10;17.30
22787;DHT22;63134;52.020;4.714;2023-02-28T15:54:38;30.60;17.60
22787;DHT22;63134;52.020;4.714;2023-02-28T15:57:27;30.10;18.20
22787;DHT22;63134;52.020;4.714;2023-02-28T16:00:15;30.00;18.40
22787;DHT22;63134;52.020;4.714;2023-02-28T16:03:01;29.70;18.60
22787;DHT22;63134;52.020;4.714;2023-02-28T16:09:03;28.30;19.40
22787;DHT22;63134;52.020;4.714;2023-02-28T16:11:54;27.50;19.90
22787;DHT22;63134;52.020;4.714;2023-02-28T16:14:40;26.70;20.50
22787;DHT22;63134;52.020;4.714;2023-02-28T16:17:35;25.80;21.30
22787;DHT22;63134;52.020;4.714;2023-02-28T16:20:26;25.20;22.30
22787;DHT22;63134;52.020;4.714;2023-02-28T16:23:12;24.70;22.80
22787;DHT22;63134;52.020;4.714;2023-02-28T16:25:58;23.90;23.30
22787;DHT22;63134;52.020;4.714;2023-02-28T16:28:43;23.30;24.00
22787;DHT22;63134;52.020;4.714;2023-02-28T16:31:32;22.70;24.80
22787;DHT22;63134;52.020;4.714;2023-02-28T16:34:19;22.20;25.30
22787;DHT22;63134;52.020;4.714;2023-02-28T16:37:15;21.80;26.10
22787;DHT22;63134;52.020;4.714;2023-02-28T16:40:25;21.50;26.70
22787;DHT22;63134;52.020;4.714;2023-02-28T16:43:37;21.10;27.10
22787;DHT22;63134;52.020;4.714;2023-02-28T16:46:31;20.40;27.80
22787;DHT22;63134;52.020;4.714;2023-02-28T16:49:21;20.10;28.40
22787;DHT22;63134;52.020;4.714;2023-02-28T16:52:06;19.80;28.60
22787;DHT22;63134;52.020;4.714;2023-02-28T16:54:52;19.10;29.40
22787;DHT22;63134;52.020;4.714;2023-02-28T16:57:39;17.40;30.90
22787;DHT22;63134;52.020;4.714;2023-02-28T17:00:27;15.70;34.30
22787;DHT22;63134;52.020;4.714;2023-02-28T17:03:24;14.50;37.00
22787;DHT22;63134;52.020;4.714;2023-02-28T17:06:20;13.30;39.90
22787;DHT22;63134;52.020;4.714;2023-02-28T17:09:25;12.30;42.40
22787;DHT22;63134;52.020;4.714;2023-02-28T17:12:25;11.70;44.40
22787;DHT22;63134;52.020;4.714;2023-02-28T17:15:16;11.00;45.40
22787;DHT22;63134;52.020;4.714;2023-02-28T17:18:05;10.40;46.30
22787;DHT22;63134;52.020;4.714;2023-02-28T17:20:50;9.80;48.10
22787;DHT22;63134;52.020;4.714;2023-02-28T17:23:36;9.30;49.40
22787;DHT22;63134;52.020;4.714;2023-02-28T17:26:22;8.90;50.90
22787;DHT22;63134;52.020;4.714;2023-02-28T17:29:23;8.60;52.70
22787;DHT22;63134;52.020;4.714;2023-02-28T17:32:09;8.10;53.80
22787;DHT22;63134;52.020;4.714;2023-02-28T17:35:02;7.80;54.90
22787;DHT22;63134;52.020;4.714;2023-02-28T17:37:48;7.50;56.40
22787;DHT22;63134;52.020;4.714;2023-02-28T17:40:33;7.30;57.20
22787;DHT22;63134;52.020;4.714;2023-02-28T17:43:19;7.10;58.00
22787;DHT22;63134;52.020;4.714;2023-02-28T17:46:05;6.80;58.60
22787;DHT22;63134;52.020;4.714;2023-02-28T17:48:52;6.70;59.70
22787;DHT22;63134;52.020;4.714;2023-02-28T17:51:38;6.50;60.50
22787;DHT22;63134;52.020;4.714;2023-02-28T17:54:23;6.40;61.20
22787;DHT22;63134;52.020;4.714;2023-02-28T17:57:14;6.20;62.30
22787;DHT22;63134;52.020;4.714;2023-02-28T18:00:01;6.10;63.30
22787;DHT22;63134;52.020;4.714;2023-02-28T18:02:55;6.00;64.00
22787;DHT22;63134;52.020;4.714;2023-02-28T18:05:41;5.80;64.70
22787;DHT22;63134;52.020;4.714;2023-02-28T18:08:26;5.70;65.30
22787;DHT22;63134;52.020;4.714;2023-02-28T18:11:12;5.60;66.30
22787;DHT22;63134;52.020;4.714;2023-02-28T18:14:29;5.50;66.80
22787;DHT22;63134;52.020;4.714;2023-02-28T18:17:15;5.40;67.60
22787;DHT22;63134;52.020;4.714;2023-02-28T18:20:04;5.30;68.40
22787;DHT22;63134;52.020;4.714;2023-02-28T18:22:50;5.20;69.20
22787;DHT22;63134;52.020;4.714;2023-02-28T18:25:38;5.20;69.90
22787;DHT22;63134;52.020;4.714;2023-02-28T18:28:25;5.10;70.00
22787;DHT22;63134;52.020;4.714;2023-02-28T18:31:18;5.00;70.80
22787;DHT22;63134;52.020;4.714;2023-02-28T18:34:04;4.90;71.10
22787;DHT22;63134;52.020;4.714;2023-02-28T18:36:51;4.90;71.10
22787;DHT22;63134;52.020;4.714;2023-02-28T18:39:41;4.80;71.90
22787;DHT22;63134;52.020;4.714;2023-02-28T18:42:29;4.70;72.00
22787;DHT22;63134;52.020;4.714;2023-02-28T18:45:17;4.60;72.50
22787;DHT22;63134;52.020;4.714;2023-02-28T18:48:04;4.60;73.00
22787;DHT22;63134;52.020;4.714;2023-02-28T18:50:50;4.50;73.30
22787;DHT22;63134;52.020;4.714;2023-02-28T18:53:36;4.40;74.10
22787;DHT22;63134;52.020;4.714;2023-02-28T18:56:23;4.40;74.60
22787;DHT22;63134;52.020;4.714;2023-02-28T18:59:08;4.30;75.40
22787;DHT22;63134;52.020;4.714;2023-02-28T19:01:55;4.30;76.00
22787;DHT22;63134;52.020;4.714;2023-02-28T19:04:42;4.20;76.10
22787;DHT22;63134;52.020;4.714;2023-02-28T19:07:29;4.20;76.60
22787;DHT22;63134;52.020;4.714;2023-02-28T19:10:15;4.20;77.00
22787;DHT22;63134;52.020;4.714;2023-02-28T19:13:00;4.20;77.40
22787;DHT22;63134;52.020;4.714;2023-02-28T19:15:48;4.20;77.60
22787;DHT22;63134;52.020;4.714;2023-02-28T19:18:37;4.10;77.80
22787;DHT22;63134;52.020;4.714;2023-02-28T19:21:23;4.10;78.20
22787;DHT22;63134;52.020;4.714;2023-02-28T19:24:10;4.10;78.50
22787;DHT22;63134;52.020;4.714;2023-02-28T19:26:55;4.00;78.70
22787;DHT22;63134;52.020;4.714;2023-02-28T19:29:43;4.00;79.30